createdAt,value
2022-11-28T00:08:22.777Z,218.27
2022-11-28T00:18:26.257Z,222.13
2022-11-28T00:28:31.063Z,220.40
2022-11-28T00:38:34.865Z,225.13
2022-11-28T00:48:39.753Z,226.83
2022-11-28T00:58:44.235Z,218.00
2022-11-28T01:08:49.132Z,218.80
2022-11-28T01:18:53.184Z,216.20
2022-11-28T01:28:59.792Z,228.77
2022-11-28T01:39:03.201Z,233.53
2022-11-28T01:49:12.977Z,236.53
2022-11-28T01:59:17.603Z,228.20
2022-11-28T02:09:22.381Z,221.37
2022-11-28T02:20:31.231Z,220.90
2022-11-28T02:30:49.986Z,211.80
2022-11-28T02:41:02.232Z,218.30
2022-11-28T02:51:12.884Z,209.90
2022-11-28T03:01:24.577Z,210.80
2022-11-28T03:11:42.926Z,213.70
2022-11-28T03:21:58.086Z,214.83
2022-11-28T03:32:06.989Z,207.00
2022-11-28T03:42:16.173Z,214.53
2022-11-28T03:52:26.766Z,211.77
2022-11-28T04:02:36.832Z,212.50
2022-11-28T04:12:54.210Z,206.73
2022-11-28T04:23:06.751Z,210.13
2022-11-28T04:33:12.895Z,216.57
2022-11-28T04:43:23.067Z,228.93
2022-11-28T04:53:34.024Z,213.50
2022-11-28T05:03:42.846Z,219.43
2022-11-28T05:13:46.653Z,217.83
2022-11-28T05:23:51.469Z,214.90
2022-11-28T05:33:55.961Z,209.23
2022-11-28T05:44:01.754Z,211.00
2022-11-28T05:54:05.536Z,208.23
2022-11-28T06:04:10.449Z,206.23
2022-11-28T06:14:13.997Z,206.03
2022-11-28T06:24:19.061Z,203.73
2022-11-28T06:34:22.494Z,208.33
2022-11-28T06:44:27.371Z,204.20
2022-11-28T06:54:30.860Z,204.23
2022-11-28T07:04:35.698Z,204.03
2022-11-28T07:14:39.358Z,202.60
2022-11-28T07:24:44.259Z,200.43
2022-11-28T07:34:50.146Z,207.57
2022-11-28T07:44:55.282Z,197.50
2022-11-28T07:54:58.758Z,188.37
2022-11-28T08:05:03.611Z,199.37
2022-11-28T08:15:08.257Z,203.27
2022-11-28T08:25:13.122Z,204.83
2022-11-28T08:35:16.790Z,198.30
2022-11-28T08:45:21.709Z,191.90
2022-11-28T08:55:31.935Z,193.17
2022-11-28T09:05:37.671Z,191.80
2022-11-28T09:15:42.009Z,197.33
2022-11-28T09:25:46.842Z,206.80
2022-11-28T09:35:52.396Z,199.40
2022-11-28T09:45:59.401Z,201.77
2022-11-28T09:56:10.269Z,204.80
2022-11-28T10:06:22.029Z,215.00
2022-11-28T10:16:34.688Z,211.73
2022-11-28T10:26:46.002Z,209.37
2022-11-28T10:36:57.226Z,203.43
2022-11-28T10:47:08.852Z,205.37
2022-11-28T10:57:19.264Z,202.77
2022-11-28T11:07:29.918Z,211.07
2022-11-28T11:17:37.840Z,209.00
2022-11-28T11:27:50.796Z,208.00
2022-11-28T11:37:54.803Z,202.77
2022-11-28T11:47:59.917Z,203.70
2022-11-28T11:58:06.246Z,204.10
2022-11-28T12:08:18.097Z,211.77
2022-11-28T12:18:29.399Z,206.00
2022-11-28T12:28:50.675Z,210.33
2022-11-28T12:39:12.247Z,208.33
2022-11-28T12:49:22.697Z,200.23
2022-11-28T12:59:38.569Z,204.43
2022-11-28T13:10:00.026Z,201.27
2022-11-28T13:20:16.589Z,194.00
2022-11-28T13:30:23.483Z,196.70
2022-11-28T13:40:34.717Z,203.60
2022-11-28T13:51:02.098Z,202.57
2022-11-28T14:01:10.627Z,200.87
2022-11-28T14:11:43.820Z,212.90
2022-11-28T14:22:00.392Z,208.83
2022-11-28T14:32:28.996Z,195.47
2022-11-28T14:53:38.997Z,199.17
2022-11-28T15:03:53.889Z,195.93
2022-11-28T15:14:16.773Z,189.67
2022-11-28T15:24:28.532Z,186.83
2022-11-28T15:34:35.448Z,183.47
2022-11-28T15:44:40.091Z,182.17
2022-11-28T15:54:45.491Z,187.07
2022-11-28T16:04:49.364Z,182.13
2022-11-28T16:14:58.846Z,190.43
2022-11-28T16:25:18.478Z,192.63
2022-11-28T16:35:30.009Z,191.53
2022-11-28T16:45:34.986Z,193.27
2022-11-28T16:55:48.938Z,185.17
2022-11-28T17:05:52.436Z,193.93
2022-11-28T17:15:58.663Z,183.77
2022-11-28T17:26:02.417Z,192.00
2022-11-28T17:36:08.137Z,197.63
2022-11-28T17:46:11.784Z,199.27
2022-11-28T17:56:16.759Z,197.40
2022-11-28T18:06:21.284Z,196.83
2022-11-28T18:16:30.212Z,201.77
2022-11-28T18:26:34.957Z,198.73
2022-11-28T18:36:41.295Z,183.83
2022-11-28T18:46:45.890Z,175.93
2022-11-28T18:56:51.142Z,178.17
2022-11-28T19:06:54.806Z,183.03
2022-11-28T19:17:00.012Z,186.63
2022-11-28T19:27:03.596Z,185.47
2022-11-28T19:37:09.204Z,192.63
2022-11-28T19:47:12.704Z,183.23
2022-11-28T19:57:20.790Z,182.80
2022-11-28T20:07:24.625Z,184.60
2022-11-28T20:17:29.525Z,187.30
2022-11-28T20:27:33.446Z,185.10
2022-11-28T20:37:39.072Z,182.90
2022-11-28T20:47:48.270Z,190.10
2022-11-28T20:57:54.567Z,186.10
2022-11-28T21:07:58.200Z,186.83
2022-11-28T21:18:03.795Z,192.20
2022-11-28T21:28:09.217Z,182.07
2022-11-28T21:38:14.457Z,187.27
2022-11-28T21:48:18.122Z,181.63
2022-11-28T21:58:26.605Z,194.33
2022-11-28T22:08:31.780Z,193.93
2022-11-28T22:18:37.344Z,187.63
2022-11-28T22:28:42.438Z,181.70
2022-11-28T22:38:49.117Z,184.70
2022-11-28T22:48:53.285Z,186.07
2022-11-28T22:58:58.341Z,191.60
2022-11-28T23:09:05.563Z,195.60
2022-11-28T23:19:14.694Z,206.83
2022-11-28T23:29:18.881Z,238.50
2022-11-28T23:39:24.569Z,235.27
2022-11-28T23:49:28.056Z,232.70
2022-11-28T23:59:32.855Z,226.27
